Aviation Digital Data Service (ADDS)

Output produced by TAFs form (0947 UTC 25 February 2018)
found at http://aviationweather.gov/adds/tafs/
 
KHOB 250520Z 2506/2606 31007KT P6SM SKC 
     FM251700 26014G24KT P6SM SKC